Time;durP1;ratioP1;P1;durP2;ratioP2;P2;SDS_P1;SDS_P2;PMS_P1;PMS_P2;Temp;Humidity;BMP_temperature;BMP_pressure;BME280_temperature;BME280_humidity;BME280_pressure;Samples;Min_cycle;Max_cycle;Signal;HPM_P1;HPM_P2
2022/08/24 00:01:11;;;;;;;29.00;15.88;;;;;;;;;;5076878;28;20035;-88
2022/08/24 00:03:37;;;;;;;21.58;15.52;;;;;;;;;;5095135;28;20378;-88
2022/08/24 00:06:05;;;;;;;18.48;14.15;;;;;;;;;;5095257;28;20099;-88
2022/08/24 00:08:32;;;;;;;19.67;13.45;;;;;;;;;;5104962;28;20054;-88
2022/08/24 00:10:58;;;;;;;23.83;13.85;;;;;;;;;;5115395;28;20446;-88
2022/08/24 00:13:25;;;;;;;23.70;15.80;;;;;;;;;;5115495;28;20023;-88
2022/08/24 00:15:51;;;;;;;17.45;12.55;;;;;;;;;;5097072;28;20477;-88
2022/08/24 00:18:18;;;;;;;18.00;12.18;;;;;;;;;;5115688;28;20016;-89
2022/08/24 00:20:44;;;;;;;20.40;11.60;;;;;;;;;;5115453;28;20020;-88
2022/08/24 00:23:10;;;;;;;16.00;11.35;;;;;;;;;;5096847;28;20019;-88
2022/08/24 00:25:36;;;;;;;17.88;11.27;;;;;;;;;;5096819;28;20020;-88
2022/08/24 00:28:03;;;;;;;19.85;11.35;;;;;;;;;;5096753;28;20031;-88
2022/08/24 00:30:29;;;;;;;19.27;12.50;;;;;;;;;;5096575;28;20023;-88
2022/08/24 00:32:56;;;;;;;18.85;12.38;;;;;;;;;;5096621;28;20020;-88
2022/08/24 00:35:23;;;;;;;22.35;12.65;;;;;;;;;;5096563;28;20129;-88
2022/08/24 00:37:50;;;;;;;20.60;13.15;;;;;;;;;;5114921;28;20024;-88
2022/08/24 00:40:19;;;;;;;20.83;12.40;;;;;;;;;;5096560;28;20019;-87
2022/08/24 00:42:45;;;;;;;17.67;12.32;;;;;;;;;;5096460;28;20020;-88
2022/08/24 00:45:12;;;;;;;16.85;12.35;;;;;;;;;;5096611;28;20031;-88
2022/08/24 00:47:41;;;;;;;22.15;12.43;;;;;;;;;;5114809;28;20023;-87
2022/08/24 00:50:09;;;;;;;17.13;12.30;;;;;;;;;;5114580;28;20023;-88
2022/08/24 00:52:38;;;;;;;18.42;11.77;;;;;;;;;;5096768;28;20027;-88
2022/08/24 00:55:07;;;;;;;21.55;11.25;;;;;;;;;;5096220;28;20023;-88
2022/08/24 00:57:44;;;;;;;20.15;11.35;;;;;;;;;;5096079;28;20019;-88
2022/08/24 01:00:13;;;;;;;22.80;11.63;;;;;;;;;;5096127;28;20032;-88
2022/08/24 01:02:42;;;;;;;18.80;11.25;;;;;;;;;;5114632;28;20028;-87
2022/08/24 01:05:10;;;;;;;16.08;10.40;;;;;;;;;;5114383;28;20023;-87
2022/08/24 01:07:37;;;;;;;18.27;12.40;;;;;;;;;;5096048;28;20450;-87
2022/08/24 01:10:06;;;;;;;15.65;11.15;;;;;;;;;;5113908;28;20051;-88
2022/08/24 01:12:34;;;;;;;19.27;12.20;;;;;;;;;;5114598;28;20039;-87
2022/08/24 01:15:01;;;;;;;17.52;12.50;;;;;;;;;;5095904;28;20126;-87
2022/08/24 01:20:12;;;;;;;22.10;12.85;;;;;;;;;;5115480;28;20031;-88
2022/08/24 01:22:43;;;;;;;21.85;13.70;;;;;;;;;;5097267;28;20051;-88
2022/08/24 01:25:10;;;;;;;18.70;13.07;;;;;;;;;;5097766;28;20024;-88
2022/08/24 01:27:37;;;;;;;15.95;12.23;;;;;;;;;;5096366;28;20115;-88
2022/08/24 01:30:07;;;;;;;15.02;11.23;;;;;;;;;;5095619;28;20023;-88
2022/08/24 01:32:33;;;;;;;15.75;11.57;;;;;;;;;;5113628;28;20450;-88
2022/08/24 01:35:00;;;;;;;21.38;11.93;;;;;;;;;;5092575;28;20680;-87
2022/08/24 01:37:26;;;;;;;17.20;12.45;;;;;;;;;;5075180;28;20120;-87
2022/08/24 01:39:54;;;;;;;17.63;13.27;;;;;;;;;;5075213;28;20035;-88
2022/08/24 01:42:20;;;;;;;20.60;14.07;;;;;;;;;;5093497;28;20020;-88
2022/08/24 01:44:46;;;;;;;22.70;13.40;;;;;;;;;;5074877;28;20440;-88
2022/08/24 01:47:13;;;;;;;18.42;13.02;;;;;;;;;;5093631;28;20097;-87
2022/08/24 01:49:42;;;;;;;19.38;13.13;;;;;;;;;;5093275;28;20768;-88
2022/08/24 01:52:09;;;;;;;22.77;14.00;;;;;;;;;;5074712;28;20056;-88
2022/08/24 01:54:35;;;;;;;20.98;11.85;;;;;;;;;;5093381;28;20024;-87
2022/08/24 01:57:02;;;;;;;19.88;11.80;;;;;;;;;;5093002;28;20076;-87
2022/08/24 01:59:28;;;;;;;26.90;14.05;;;;;;;;;;5093091;28;20047;-87
2022/08/24 02:02:21;;;;;;;22.92;12.60;;;;;;;;;;5075180;28;20024;-88
2022/08/24 02:04:47;;;;;;;20.02;14.50;;;;;;;;;;5089335;28;20055;-88
2022/08/24 02:07:13;;;;;;;20.85;14.85;;;;;;;;;;5075087;28;20059;-89
2022/08/24 02:09:39;;;;;;;17.88;12.40;;;;;;;;;;5074587;28;20131;-88
2022/08/24 02:12:06;;;;;;;16.95;11.57;;;;;;;;;;5093264;28;20054;-89
2022/08/24 02:14:32;;;;;;;18.55;12.38;;;;;;;;;;5074695;28;20035;-88
2022/08/24 02:16:58;;;;;;;20.25;13.18;;;;;;;;;;5074673;28;20122;-88
2022/08/24 02:19:24;;;;;;;24.50;13.98;;;;;;;;;;5093015;28;20438;-88
2022/08/24 02:21:50;;;;;;;22.13;13.95;;;;;;;;;;5073712;28;20047;-88
2022/08/24 02:24:16;;;;;;;17.27;12.93;;;;;;;;;;5092873;28;20027;-88
2022/08/24 02:26:42;;;;;;;21.70;13.50;;;;;;;;;;5092852;28;20035;-88
2022/08/24 02:29:08;;;;;;;19.58;12.90;;;;;;;;;;5074734;28;20020;-88
2022/08/24 02:31:35;;;;;;;18.27;14.00;;;;;;;;;;5092705;28;20020;-88
2022/08/24 02:34:01;;;;;;;21.70;14.68;;;;;;;;;;5092959;28;20016;-89
2022/08/24 02:36:28;;;;;;;21.42;15.25;;;;;;;;;;5074430;28;20107;-88
2022/08/24 02:38:54;;;;;;;22.48;14.98;;;;;;;;;;5092881;28;20426;-88
2022/08/24 02:41:23;;;;;;;22.75;16.50;;;;;;;;;;5092637;28;20035;-88
2022/08/24 02:43:50;;;;;;;21.35;13.85;;;;;;;;;;5074396;28;20020;-88
2022/08/24 02:46:21;;;;;;;18.23;13.43;;;;;;;;;;5074465;28;20344;-88
2022/08/24 02:48:47;;;;;;;22.20;14.27;;;;;;;;;;5074259;28;20462;-88
2022/08/24 02:51:20;;;;;;;18.38;13.13;;;;;;;;;;5092483;28;20070;-88
2022/08/24 02:53:46;;;;;;;20.48;12.98;;;;;;;;;;5074189;28;20031;-88
2022/08/24 02:56:13;;;;;;;21.85;12.98;;;;;;;;;;5074357;28;20048;-88
2022/08/24 02:58:39;;;;;;;16.38;12.45;;;;;;;;;;5092301;28;20462;-88
2022/08/24 03:01:05;;;;;;;22.10;13.38;;;;;;;;;;5092635;28;20119;-88
2022/08/24 03:03:31;;;;;;;18.65;13.35;;;;;;;;;;5092343;28;20094;-88
2022/08/24 03:05:57;;;;;;;19.08;12.57;;;;;;;;;;5074159;28;20035;-88
2022/08/24 03:08:25;;;;;;;15.88;11.82;;;;;;;;;;5074122;28;20114;-88
2022/08/24 03:10:51;;;;;;;16.38;12.63;;;;;;;;;;5092494;28;20016;-88
2022/08/24 03:13:17;;;;;;;17.60;13.20;;;;;;;;;;5092367;28;20158;-88
2022/08/24 03:15:45;;;;;;;17.77;11.73;;;;;;;;;;5074083;28;20024;-88
2022/08/24 03:18:11;;;;;;;20.52;13.27;;;;;;;;;;5092418;28;20021;-88
2022/08/24 03:20:37;;;;;;;16.02;12.98;;;;;;;;;;5092204;28;20027;-87
2022/08/24 03:23:04;;;;;;;16.33;11.27;;;;;;;;;;5092324;28;20060;-87
2022/08/24 03:25:30;;;;;;;19.48;12.38;;;;;;;;;;5074002;28;20111;-88
2022/08/24 03:27:56;;;;;;;19.50;13.70;;;;;;;;;;5073942;28;20493;-87
2022/08/24 03:30:23;;;;;;;16.90;12.25;;;;;;;;;;5073871;28;20024;-89
2022/08/24 03:32:49;;;;;;;15.90;12.68;;;;;;;;;;5092343;28;20058;-87
2022/08/24 03:35:15;;;;;;;25.20;14.93;;;;;;;;;;5082423;28;20035;-87
2022/08/24 03:37:41;;;;;;;18.23;13.35;;;;;;;;;;5097759;28;20540;-87
2022/08/24 03:40:08;;;;;;;17.80;14.38;;;;;;;;;;5116075;28;20425;-88
2022/08/24 03:42:34;;;;;;;15.82;12.75;;;;;;;;;;5097617;28;20028;-88
2022/08/24 03:45:00;;;;;;;18.90;13.98;;;;;;;;;;5097751;28;20031;-88
2022/08/24 03:47:26;;;;;;;19.73;12.45;;;;;;;;;;5097653;28;20027;-88
2022/08/24 03:49:52;;;;;;;18.00;12.60;;;;;;;;;;5097539;28;20027;-88
2022/08/24 03:52:18;;;;;;;15.73;11.93;;;;;;;;;;5097364;28;20023;-88
2022/08/24 03:54:44;;;;;;;15.15;10.98;;;;;;;;;;5097566;28;20110;-88
2022/08/24 03:57:10;;;;;;;14.90;11.57;;;;;;;;;;5097506;28;20326;-87
2022/08/24 03:59:36;;;;;;;19.92;11.30;;;;;;;;;;5097280;28;20090;-87
2022/08/24 04:02:03;;;;;;;16.77;11.70;;;;;;;;;;5115810;28;20129;-87
2022/08/24 04:04:30;;;;;;;16.80;11.30;;;;;;;;;;5115587;28;20102;-88
2022/08/24 04:06:56;;;;;;;18.55;12.27;;;;;;;;;;5115592;28;20020;-88
2022/08/24 04:09:22;;;;;;;18.52;12.90;;;;;;;;;;5098741;28;20463;-88
2022/08/24 04:11:48;;;;;;;16.05;11.45;;;;;;;;;;5095388;28;20031;-88
2022/08/24 04:14:16;;;;;;;16.52;11.15;;;;;;;;;;5076962;28;20090;-88
2022/08/24 04:16:43;;;;;;;21.70;13.63;;;;;;;;;;5076728;28;20020;-87
2022/08/24 04:19:09;;;;;;;17.48;11.57;;;;;;;;;;5094877;28;20023;-87
2022/08/24 04:21:36;;;;;;;22.00;12.98;;;;;;;;;;5095049;28;20024;-88
2022/08/24 04:24:02;;;;;;;15.68;11.88;;;;;;;;;;5094703;28;20099;-88
2022/08/24 04:26:30;;;;;;;23.15;12.07;;;;;;;;;;5076612;28;20444;-87
2022/08/24 04:28:56;;;;;;;21.80;11.68;;;;;;;;;;5076412;28;20482;-88
2022/08/24 04:31:23;;;;;;;22.83;12.50;;;;;;;;;;5076332;28;20035;-87
2022/08/24 04:33:50;;;;;;;18.10;10.48;;;;;;;;;;5094579;28;20028;-88
2022/08/24 04:36:17;;;;;;;15.13;10.90;;;;;;;;;;5076201;28;20020;-87
2022/08/24 04:38:43;;;;;;;16.50;10.98;;;;;;;;;;5094628;28;20028;-88
2022/08/24 04:41:11;;;;;;;19.25;12.18;;;;;;;;;;5094452;28;20081;-87
2022/08/24 04:43:38;;;;;;;16.45;11.27;;;;;;;;;;5094701;28;20081;-88
2022/08/24 04:46:07;;;;;;;16.27;11.10;;;;;;;;;;5093471;28;20031;-88
2022/08/24 04:48:34;;;;;;;17.90;11.05;;;;;;;;;;5076231;28;20051;-87
2022/08/24 04:51:04;;;;;;;20.73;11.55;;;;;;;;;;5094283;28;20075;-87
2022/08/24 04:53:30;;;;;;;19.27;10.30;;;;;;;;;;5076408;28;20023;-88
2022/08/24 04:55:57;;;;;;;18.27;10.52;;;;;;;;;;5112207;28;20393;-87
2022/08/24 04:58:23;;;;;;;19.48;11.80;;;;;;;;;;5114920;28;20122;-88
2022/08/24 05:00:49;;;;;;;14.82;11.50;;;;;;;;;;5096341;28;20032;-88
2022/08/24 05:03:15;;;;;;;21.35;12.18;;;;;;;;;;5096526;28;20066;-88
2022/08/24 05:05:42;;;;;;;17.50;11.45;;;;;;;;;;5114791;28;20020;-87
2022/08/24 05:08:09;;;;;;;19.90;11.57;;;;;;;;;;5096204;28;20019;-88
2022/08/24 05:10:37;;;;;;;17.23;11.48;;;;;;;;;;5114429;28;20100;-88
2022/08/24 05:13:03;;;;;;;13.25;9.82;;;;;;;;;;5096132;28;20028;-88
2022/08/24 05:15:30;;;;;;;14.25;10.57;;;;;;;;;;5124590;28;20023;-87
2022/08/24 05:17:56;;;;;;;27.08;11.35;;;;;;;;;;5116142;28;20019;-87
2022/08/24 05:20:22;;;;;;;20.00;11.30;;;;;;;;;;5095789;28;20404;-88
2022/08/24 05:22:51;;;;;;;21.40;9.80;;;;;;;;;;5095887;28;20031;-87
2022/08/24 05:25:17;;;;;;;14.73;10.27;;;;;;;;;;5095452;28;20114;-88
2022/08/24 05:27:43;;;;;;;15.48;9.95;;;;;;;;;;5095602;28;20035;-87
2022/08/24 05:30:09;;;;;;;21.38;11.30;;;;;;;;;;5113522;28;20030;-87
2022/08/24 05:32:36;;;;;;;16.67;10.55;;;;;;;;;;5095356;28;20100;-87
2022/08/24 05:35:03;;;;;;;16.70;10.82;;;;;;;;;;5110910;28;20016;-87
2022/08/24 05:37:30;;;;;;;15.13;9.40;;;;;;;;;;5074864;28;20031;-87
2022/08/24 05:39:56;;;;;;;14.98;10.05;;;;;;;;;;5092913;28;20016;-87
2022/08/24 05:42:22;;;;;;;16.88;9.50;;;;;;;;;;5075036;28;20024;-87
2022/08/24 05:44:48;;;;;;;21.90;10.68;;;;;;;;;;5093082;28;20024;-87
2022/08/24 05:47:14;;;;;;;28.60;12.93;;;;;;;;;;5074998;28;20056;-87
2022/08/24 05:49:41;;;;;;;29.27;14.70;;;;;;;;;;5074873;28;20027;-87
2022/08/24 05:52:07;;;;;;;28.05;13.95;;;;;;;;;;5092959;28;20124;-87
2022/08/24 05:54:34;;;;;;;23.83;11.25;;;;;;;;;;5093102;28;20032;-88
2022/08/24 05:57:03;;;;;;;23.23;10.82;;;;;;;;;;5093104;28;20028;-87
2022/08/24 05:59:29;;;;;;;23.55;12.30;;;;;;;;;;5093102;28;20108;-87
2022/08/24 06:01:55;;;;;;;21.75;11.05;;;;;;;;;;5075129;28;20024;-87
2022/08/24 06:04:21;;;;;;;22.52;14.13;;;;;;;;;;5093021;28;20024;-87
2022/08/24 06:06:48;;;;;;;18.35;11.40;;;;;;;;;;5074632;28;20027;-87
2022/08/24 06:09:15;;;;;;;25.08;13.15;;;;;;;;;;5090065;28;20134;-87
2022/08/24 06:11:41;;;;;;;20.10;11.30;;;;;;;;;;5113215;28;20027;-86
2022/08/24 06:14:09;;;;;;;20.83;12.02;;;;;;;;;;5113111;28;20024;-87
2022/08/24 06:16:36;;;;;;;35.78;15.77;;;;;;;;;;5094807;28;20016;-87
2022/08/24 06:19:03;;;;;;;25.40;16.10;;;;;;;;;;5113081;28;20113;-87
2022/08/24 06:21:31;;;;;;;28.25;15.52;;;;;;;;;;5112914;28;20019;-86
2022/08/24 06:23:57;;;;;;;24.77;14.25;;;;;;;;;;5094691;28;20030;-87
2022/08/24 06:29:09;;;;;;;22.33;14.02;;;;;;;;;;5113121;28;20035;-87
2022/08/24 06:31:39;;;;;;;28.08;15.68;;;;;;;;;;5112710;28;20047;-87
2022/08/24 06:34:06;;;;;;;22.15;15.77;;;;;;;;;;5112892;28;20086;-87
2022/08/24 06:36:32;;;;;;;26.45;15.20;;;;;;;;;;5112923;28;20019;-86
2022/08/24 06:38:58;;;;;;;22.80;14.63;;;;;;;;;;5112846;28;20455;-82
2022/08/24 06:41:25;;;;;;;24.17;14.60;;;;;;;;;;5120647;28;20041;-90
2022/08/24 06:43:51;;;;;;;25.40;16.42;;;;;;;;;;5115222;28;20023;-89
2022/08/24 06:46:17;;;;;;;31.38;16.90;;;;;;;;;;5133756;28;20383;-90
2022/08/24 06:48:43;;;;;;;29.73;17.08;;;;;;;;;;5101017;28;20030;-90
2022/08/24 06:51:11;;;;;;;26.42;17.10;;;;;;;;;;5112767;28;20081;-90
2022/08/24 06:53:37;;;;;;;26.52;17.38;;;;;;;;;;5099885;28;20016;-90
2022/08/24 06:56:03;;;;;;;24.52;15.90;;;;;;;;;;5096286;28;20046;-90
2022/08/24 06:58:30;;;;;;;22.80;16.10;;;;;;;;;;5114943;28;20035;-89
2022/08/24 07:00:56;;;;;;;23.02;15.82;;;;;;;;;;5097207;28;20095;-90
2022/08/24 07:03:23;;;;;;;19.77;14.20;;;;;;;;;;5112624;28;20023;-89
2022/08/24 07:05:50;;;;;;;20.52;14.73;;;;;;;;;;5112570;28;20031;-90
2022/08/24 07:08:17;;;;;;;20.25;16.48;;;;;;;;;;5113936;27;20066;-90
2022/08/24 07:10:44;;;;;;;24.60;15.73;;;;;;;;;;5133925;27;20027;-89
2022/08/24 07:13:11;;;;;;;24.00;15.70;;;;;;;;;;5137440;27;20441;-90
2022/08/24 07:15:38;;;;;;;26.33;17.77;;;;;;;;;;5108973;28;20024;-90
2022/08/24 07:18:08;;;;;;;24.55;15.60;;;;;;;;;;5135513;27;20027;-89
2022/08/24 07:20:34;;;;;;;28.25;17.42;;;;;;;;;;5104041;28;20396;-90
2022/08/24 07:23:00;;;;;;;21.23;15.75;;;;;;;;;;5116606;28;20081;-89
2022/08/24 07:25:26;;;;;;;21.60;13.77;;;;;;;;;;5116582;28;20439;-91
2022/08/24 07:27:52;;;;;;;22.85;15.18;;;;;;;;;;5116626;28;20363;-90
2022/08/24 07:30:18;;;;;;;20.95;12.88;;;;;;;;;;5098006;28;20455;-86
2022/08/24 07:32:45;;;;;;;20.50;12.77;;;;;;;;;;5116198;28;20107;-88
2022/08/24 07:35:11;;;;;;;24.48;12.05;;;;;;;;;;5100666;28;20073;-85
2022/08/24 07:37:37;;;;;;;20.27;12.77;;;;;;;;;;5127421;27;20378;-88
2022/08/24 07:40:03;;;;;;;17.15;13.07;;;;;;;;;;5116248;28;20458;-88
2022/08/24 07:42:29;;;;;;;26.25;13.70;;;;;;;;;;5115890;28;20120;-87
2022/08/24 07:44:56;;;;;;;21.45;12.82;;;;;;;;;;5115790;28;20043;-88
2022/08/24 07:47:22;;;;;;;22.63;14.50;;;;;;;;;;5097647;28;20072;-87
2022/08/24 07:49:48;;;;;;;17.40;12.52;;;;;;;;;;5097992;28;20024;-87
2022/08/24 07:52:14;;;;;;;18.10;12.25;;;;;;;;;;5115347;28;20117;-84
2022/08/24 07:54:40;;;;;;;21.77;12.43;;;;;;;;;;5115690;28;20020;-87
2022/08/24 07:57:06;;;;;;;18.98;11.25;;;;;;;;;;5097351;28;20082;-87
2022/08/24 07:59:34;;;;;;;22.15;12.20;;;;;;;;;;5115340;28;20463;-87
2022/08/24 08:02:00;;;;;;;17.17;11.02;;;;;;;;;;5115951;28;20427;-87
2022/08/24 08:04:26;;;;;;;20.73;12.77;;;;;;;;;;5115787;28;20031;-87
2022/08/24 08:06:53;;;;;;;20.58;11.63;;;;;;;;;;5115433;28;20027;-87
2022/08/24 08:09:19;;;;;;;16.20;9.75;;;;;;;;;;5096784;28;20446;-85
2022/08/24 08:11:45;;;;;;;18.73;9.88;;;;;;;;;;5115480;28;20024;-86
2022/08/24 08:14:13;;;;;;;15.40;10.63;;;;;;;;;;5097242;28;20063;-90
2022/08/24 08:16:39;;;;;;;14.93;9.63;;;;;;;;;;5115272;28;20042;-83
2022/08/24 08:19:05;;;;;;;14.43;9.13;;;;;;;;;;5114575;28;20016;-84
2022/08/24 08:24:19;;;;;;;16.10;8.77;;;;;;;;;;5136362;27;20382;-84
2022/08/24 08:26:46;;;;;;;16.27;9.18;;;;;;;;;;5135538;27;20025;-85
2022/08/24 08:29:13;;;;;;;12.38;7.05;;;;;;;;;;5135771;27;20023;-85
2022/08/24 08:31:39;;;;;;;20.13;8.45;;;;;;;;;;5135452;27;20027;-85
2022/08/24 08:34:06;;;;;;;14.32;7.88;;;;;;;;;;5116874;27;20019;-84
2022/08/24 08:36:32;;;;;;;10.63;6.63;;;;;;;;;;5135295;27;20020;-85
2022/08/24 08:38:58;;;;;;;11.18;6.93;;;;;;;;;;5135288;27;20068;-84
2022/08/24 08:41:48;;;;;;;13.38;7.82;;;;;;;;;;5135245;27;20028;-84
2022/08/24 08:44:17;;;;;;;18.15;8.65;;;;;;;;;;5087935;27;20035;-84
2022/08/24 08:47:02;;;;;;;20.42;9.63;;;;;;;;;;5135366;27;20122;-85
2022/08/24 08:49:54;;;;;;;12.20;7.60;;;;;;;;;;5135296;27;20023;-84
2022/08/24 08:52:26;;;;;;;14.20;7.75;;;;;;;;;;5096161;27;20038;-84
2022/08/24 08:54:59;;;;;;;15.65;8.07;;;;;;;;;;5126793;27;20051;-84
2022/08/24 08:57:43;;;;;;;12.40;7.38;;;;;;;;;;5114412;28;20374;-85
2022/08/24 09:00:12;;;;;;;13.63;7.55;;;;;;;;;;5114164;28;20482;-84
2022/08/24 09:02:38;;;;;;;8.68;6.10;;;;;;;;;;5095912;28;20389;-84
2022/08/24 09:05:16;;;;;;;10.55;5.28;;;;;;;;;;5114266;28;20027;-85
2022/08/24 09:07:45;;;;;;;11.00;6.80;;;;;;;;;;5114169;28;20051;-84
2022/08/24 09:10:26;;;;;;;10.68;6.32;;;;;;;;;;5114206;28;20098;-84
2022/08/24 09:13:02;;;;;;;11.07;6.17;;;;;;;;;;5114595;28;20051;-84
2022/08/24 09:15:52;;;;;;;9.60;4.57;;;;;;;;;;5095508;28;20496;-84
2022/08/24 09:18:21;;;;;;;8.45;4.88;;;;;;;;;;5113954;28;20016;-84
2022/08/24 09:20:53;;;;;;;7.78;4.35;;;;;;;;;;5114175;28;20023;-84
2022/08/24 09:23:25;;;;;;;6.35;3.88;;;;;;;;;;5114035;28;20028;-84
2022/08/24 09:26:00;;;;;;;7.32;4.10;;;;;;;;;;5113925;28;20374;-85
2022/08/24 09:28:35;;;;;;;8.70;3.90;;;;;;;;;;5113862;28;20043;-85
2022/08/24 09:31:10;;;;;;;8.35;3.90;;;;;;;;;;5094842;28;20069;-84
2022/08/24 09:33:42;;;;;;;6.57;3.92;;;;;;;;;;5095240;28;20023;-84
2022/08/24 09:36:10;;;;;;;8.68;3.30;;;;;;;;;;5101322;28;20127;-84
2022/08/24 09:38:56;;;;;;;7.03;3.47;;;;;;;;;;5093198;28;20024;-84
2022/08/24 09:41:51;;;;;;;6.30;3.17;;;;;;;;;;5093178;28;20374;-84
2022/08/24 09:44:29;;;;;;;9.93;3.30;;;;;;;;;;5093155;28;20036;-84
2022/08/24 09:46:58;;;;;;;7.57;3.47;;;;;;;;;;5074696;28;20024;-84
2022/08/24 09:49:42;;;;;;;6.05;2.75;;;;;;;;;;5074906;28;20493;-85
2022/08/24 09:52:21;;;;;;;7.60;3.60;;;;;;;;;;5092957;28;20028;-84
2022/08/24 09:55:05;;;;;;;11.90;4.00;;;;;;;;;;5092823;28;20053;-85
2022/08/24 09:57:45;;;;;;;8.98;4.10;;;;;;;;;;5092888;28;20061;-85
2022/08/24 10:00:21;;;;;;;6.13;3.50;;;;;;;;;;5074537;28;20440;-84
2022/08/24 10:03:06;;;;;;;5.78;4.18;;;;;;;;;;5092800;28;20786;-85
2022/08/24 10:05:49;;;;;;;8.55;3.90;;;;;;;;;;5074431;28;20024;-85
2022/08/24 10:08:18;;;;;;;7.15;2.90;;;;;;;;;;5095110;28;20378;-85
2022/08/24 10:10:51;;;;;;;7.38;2.70;;;;;;;;;;5093512;28;20099;-85
2022/08/24 10:13:17;;;;;;;5.95;2.95;;;;;;;;;;5113427;28;20367;-85
2022/08/24 10:15:47;;;;;;;5.07;2.80;;;;;;;;;;5113699;28;20024;-90
2022/08/24 10:18:13;;;;;;;8.77;2.95;;;;;;;;;;5118521;27;20027;-86
2022/08/24 10:20:49;;;;;;;6.68;3.72;;;;;;;;;;5127477;27;20023;-85
2022/08/24 10:23:34;;;;;;;6.38;2.88;;;;;;;;;;5114097;27;20119;-85
2022/08/24 10:26:03;;;;;;;6.30;2.92;;;;;;;;;;5100069;27;20076;-85
2022/08/24 10:28:32;;;;;;;3.80;2.45;;;;;;;;;;5113315;28;20020;-85
2022/08/24 10:31:02;;;;;;;6.30;1.73;;;;;;;;;;5112905;28;20055;-85
2022/08/24 10:33:31;;;;;;;6.82;1.50;;;;;;;;;;5132592;28;20058;-85
2022/08/24 10:36:20;;;;;;;2.33;1.10;;;;;;;;;;5094625;28;20031;-85
2022/08/24 10:41:36;;;;;;;2.97;1.25;;;;;;;;;;5133574;28;20068;-84
2022/08/24 10:44:13;;;;;;;3.28;1.20;;;;;;;;;;5117870;27;20442;-87
2022/08/24 10:46:45;;;;;;;6.13;1.30;;;;;;;;;;5136556;27;20014;-85
2022/08/24 10:49:11;;;;;;;;;;;;;;;;;;5119363;27;20046;-85
2022/08/24 10:51:53;;;;;;;2.38;1.35;;;;;;;;;;5117273;28;19908;-83
2022/08/24 10:54:23;;;;;;;2.63;1.35;;;;;;;;;;5104581;28;20038;-82
2022/08/24 10:57:05;;;;;;;4.05;1.58;;;;;;;;;;5109981;28;20497;-80
2022/08/24 10:59:52;;;;;;;5.53;1.52;;;;;;;;;;5097270;28;20036;-80
2022/08/24 11:02:35;;;;;;;3.38;1.42;;;;;;;;;;5096839;28;20103;-80
2022/08/24 11:05:08;;;;;;;2.00;1.65;;;;;;;;;;5098130;28;20031;-82
2022/08/24 11:07:35;;;;;;;4.47;1.50;;;;;;;;;;5094368;28;20024;-84
2022/08/24 11:10:15;;;;;;;3.55;1.45;;;;;;;;;;5106612;27;20035;-84
2022/08/24 11:12:42;;;;;;;1.98;1.30;;;;;;;;;;5120385;27;20381;-84
2022/08/24 11:15:17;;;;;;;4.57;1.30;;;;;;;;;;5116289;28;20061;-83
2022/08/24 11:18:12;;;;;;;3.47;1.30;;;;;;;;;;5108400;28;20030;-84
2022/08/24 11:20:45;;;;;;;2.47;1.00;;;;;;;;;;5099154;28;20141;-83
2022/08/24 11:23:20;;;;;;;3.53;1.08;;;;;;;;;;5116090;28;20493;-83
2022/08/24 11:26:03;;;;;;;4.53;1.08;;;;;;;;;;5116000;28;20069;-83
2022/08/24 11:28:31;;;;;;;1.13;0.90;;;;;;;;;;5106210;27;20023;-83
2022/08/24 11:30:58;;;;;;;2.92;1.08;;;;;;;;;;5136559;27;20027;-82
2022/08/24 11:33:28;;;;;;;1.73;1.10;;;;;;;;;;5123685;27;20441;-84
2022/08/24 11:35:54;;;;;;;2.53;1.17;;;;;;;;;;5115991;28;20019;-84
2022/08/24 11:38:21;;;;;;;2.42;0.95;;;;;;;;;;5116367;28;20047;-83
2022/08/24 11:40:53;;;;;;;8.75;1.63;;;;;;;;;;5115719;28;20377;-84
2022/08/24 11:43:28;;;;;;;1.30;0.90;;;;;;;;;;5097203;28;20103;-82
2022/08/24 11:46:13;;;;;;;4.32;1.15;;;;;;;;;;5112555;28;20032;-83
2022/08/24 11:48:50;;;;;;;3.42;1.15;;;;;;;;;;5077146;28;20028;-82
2022/08/24 11:51:20;;;;;;;2.75;1.20;;;;;;;;;;5083499;28;20028;-83
2022/08/24 11:53:51;;;;;;;4.07;1.23;;;;;;;;;;5115130;28;20016;-84
2022/08/24 11:56:24;;;;;;;3.08;1.05;;;;;;;;;;5116062;28;20019;-84
2022/08/24 11:58:50;;;;;;;2.80;1.20;;;;;;;;;;5115677;28;20493;-83
2022/08/24 12:01:19;;;;;;;1.55;1.15;;;;;;;;;;5115223;28;20068;-84
2022/08/24 12:03:58;;;;;;;4.65;1.20;;;;;;;;;;5115689;28;20016;-83
2022/08/24 12:06:25;;;;;;;2.30;1.10;;;;;;;;;;5093257;28;20024;-82
2022/08/24 12:08:51;;;;;;;1.63;1.10;;;;;;;;;;5119304;27;20007;-83
2022/08/24 12:11:23;;;;;;;5.88;1.33;;;;;;;;;;5136139;27;20445;-84
2022/08/24 12:13:56;;;;;;;2.65;0.80;;;;;;;;;;5108483;27;20012;-78
2022/08/24 12:16:25;;;;;;;4.70;0.90;;;;;;;;;;5121410;27;20056;-77
2022/08/24 12:18:51;;;;;;;1.50;0.90;;;;;;;;;;5124097;27;20015;-77
2022/08/24 12:21:20;;;;;;;1.38;0.73;;;;;;;;;;5118534;27;20099;-77
2022/08/24 12:23:50;;;;;;;1.45;0.80;;;;;;;;;;5123888;27;20051;-77
2022/08/24 12:26:22;;;;;;;5.93;0.70;;;;;;;;;;5128394;27;20031;-84
2022/08/24 12:29:04;;;;;;;4.38;0.75;;;;;;;;;;5108492;28;20020;-84
2022/08/24 12:31:33;;;;;;;2.22;0.75;;;;;;;;;;5135555;27;20030;-84
2022/08/24 12:34:01;;;;;;;1.13;0.70;;;;;;;;;;5135529;27;20434;-83
2022/08/24 12:36:37;;;;;;;1.52;0.80;;;;;;;;;;5115878;27;20043;-80
2022/08/24 12:39:10;;;;;;;3.20;0.90;;;;;;;;;;5115098;28;20024;-80
2022/08/24 12:41:39;;;;;;;2.40;0.98;;;;;;;;;;5114735;28;20706;-80
2022/08/24 12:44:08;;;;;;;1.35;0.80;;;;;;;;;;5096371;28;20028;-80
2022/08/24 12:46:34;;;;;;;1.35;0.95;;;;;;;;;;5130989;27;20023;-80
2022/08/24 12:49:21;;;;;;;1.65;0.90;;;;;;;;;;5116609;27;20801;-80
2022/08/24 12:51:47;;;;;;;1.85;0.90;;;;;;;;;;5117368;27;20088;-82
2022/08/24 12:54:19;;;;;;;1.15;0.90;;;;;;;;;;5116464;27;20418;-83
2022/08/24 12:57:12;;;;;;;3.50;0.80;;;;;;;;;;5115667;27;20065;-83
2022/08/24 12:59:50;;;;;;;1.50;0.70;;;;;;;;;;5111466;28;20048;-85
2022/08/24 13:02:19;;;;;;;1.65;0.82;;;;;;;;;;5095969;28;20056;-85
2022/08/24 13:04:48;;;;;;;3.00;0.82;;;;;;;;;;5114748;28;20453;-81
2022/08/24 13:07:23;;;;;;;2.38;0.90;;;;;;;;;;5111917;28;20026;-84
2022/08/24 13:09:52;;;;;;;2.30;0.90;;;;;;;;;;5114845;27;20043;-84
2022/08/24 13:12:37;;;;;;;2.45;0.80;;;;;;;;;;5114269;28;20023;-84
2022/08/24 13:15:29;;;;;;;3.05;0.70;;;;;;;;;;5099724;28;20090;-84
2022/08/24 13:17:57;;;;;;;2.08;1.02;;;;;;;;;;5071087;28;20495;-85
2022/08/24 13:20:26;;;;;;;4.43;0.90;;;;;;;;;;5105708;27;20034;-83
2022/08/24 13:23:14;;;;;;;1.52;0.90;;;;;;;;;;5133500;27;20035;-83
2022/08/24 13:25:46;;;;;;;2.05;0.95;;;;;;;;;;5096965;27;20515;-83
2022/08/24 13:28:22;;;;;;;2.53;0.98;;;;;;;;;;5095477;28;20059;-83
2022/08/24 13:30:57;;;;;;;5.30;1.55;;;;;;;;;;5113675;28;20027;-83
2022/08/24 13:33:42;;;;;;;1.35;0.90;;;;;;;;;;5128438;27;20157;-83
2022/08/24 13:36:08;;;;;;;5.85;1.15;;;;;;;;;;5134113;27;20072;-83
2022/08/24 13:38:34;;;;;;;9.63;1.30;;;;;;;;;;5082647;28;20024;-83
2022/08/24 13:41:10;;;;;;;6.10;1.00;;;;;;;;;;5095261;28;20027;-83
2022/08/24 13:43:36;;;;;;;2.80;1.27;;;;;;;;;;5113263;28;20024;-83
2022/08/24 13:46:02;;;;;;;3.15;1.10;;;;;;;;;;5113718;28;20373;-81
2022/08/24 13:48:41;;;;;;;2.75;1.17;;;;;;;;;;5095116;28;20085;-81
2022/08/24 13:51:19;;;;;;;4.32;1.00;;;;;;;;;;5113179;28;20385;-83
2022/08/24 13:54:02;;;;;;;4.15;0.98;;;;;;;;;;5094922;28;20469;-86
2022/08/24 13:56:49;;;;;;;11.40;1.30;;;;;;;;;;5091464;28;20020;-85
2022/08/24 13:59:21;;;;;;;4.85;1.30;;;;;;;;;;5092769;28;20047;-88
2022/08/24 14:02:02;;;;;;;3.15;1.10;;;;;;;;;;5092827;28;20077;-88
2022/08/24 14:04:33;;;;;;;7.03;1.98;;;;;;;;;;5075143;28;20028;-88
2022/08/24 14:07:05;;;;;;;2.95;1.10;;;;;;;;;;5093284;28;20441;-88
2022/08/24 14:09:31;;;;;;;;;;;;;;;;;;5093743;28;20438;-87
2022/08/24 14:11:57;;;;;;;1.48;1.00;;;;;;;;;;5104999;27;19950;-87
2022/08/24 14:14:41;;;;;;;3.65;1.27;;;;;;;;;;5133394;27;20030;-88
2022/08/24 14:20:19;;;;;;;5.22;1.63;;;;;;;;;;5121487;27;20532;-88
2022/08/24 14:23:05;;;;;;;4.07;1.08;;;;;;;;;;5114454;28;20040;-88
2022/08/24 14:25:33;;;;;;;2.47;1.02;;;;;;;;;;5092704;28;20016;-88
2022/08/24 14:27:59;;;;;;;3.08;1.23;;;;;;;;;;5099128;27;20019;-87
2022/08/24 14:30:25;;;;;;;3.28;1.27;;;;;;;;;;5104804;28;20019;-88
2022/08/24 14:32:57;;;;;;;1.95;1.00;;;;;;;;;;5113340;28;20488;-89
2022/08/24 14:35:38;;;;;;;8.07;1.00;;;;;;;;;;5120303;28;20020;-80
2022/08/24 14:38:04;;;;;;;3.53;1.00;;;;;;;;;;5130486;28;20038;-79
2022/08/24 14:40:40;;;;;;;3.60;1.00;;;;;;;;;;5092754;28;20466;-79
2022/08/24 14:43:15;;;;;;;2.13;1.02;;;;;;;;;;5109987;28;20030;-80
2022/08/24 14:46:00;;;;;;;6.05;1.00;;;;;;;;;;5113383;28;20116;-80
2022/08/24 14:48:29;;;;;;;3.55;1.27;;;;;;;;;;5118472;28;20028;-79
2022/08/24 14:51:18;;;;;;;1.52;0.90;;;;;;;;;;5113076;28;20023;-79
2022/08/24 14:53:57;;;;;;;7.60;1.55;;;;;;;;;;5112752;28;20050;-80
2022/08/24 14:56:32;;;;;;;3.90;1.10;;;;;;;;;;5113018;28;20034;-79
2022/08/24 14:59:04;;;;;;;6.88;1.02;;;;;;;;;;5113010;28;20097;-79